Time;durP1;ratioP1;P1;durP2;ratioP2;P2;SDS_P1;SDS_P2;PMS_P1;PMS_P2;Temp;Humidity;BMP_temperature;BMP_pressure;BME280_temperature;BME280_humidity;BME280_pressure;Samples;Min_cycle;Max_cycle;Signal;HPM_P1;HPM_P2
2022/03/31 00:00:39;;;;;;;4.82;1.55;;;3.00;99.90;;;;;;5052844;28;20080;-78
2022/03/31 00:03:07;;;;;;;3.42;1.35;;;3.00;99.90;;;;;;5055214;28;20087;-77
2022/03/31 00:05:33;;;;;;;3.35;1.27;;;3.00;99.90;;;;;;5041159;28;20386;-79
2022/03/31 00:08:02;;;;;;;4.63;1.38;;;3.00;99.90;;;;;;5038065;28;20945;-76
2022/03/31 00:10:37;;;;;;;5.03;1.50;;;3.00;99.90;;;;;;5044006;28;20041;-77
2022/03/31 00:13:05;;;;;;;3.88;1.30;;;3.00;99.90;;;;;;5046074;28;20040;-77
2022/03/31 00:16:00;;;;;;;4.63;1.35;;;3.00;99.90;;;;;;5044732;28;20041;-78
2022/03/31 00:18:31;;;;;;;4.47;1.35;;;2.90;99.90;;;;;;5044990;28;20238;-77
2022/03/31 00:24:18;;;;;;;2.92;1.50;;;2.90;99.90;;;;;;5059289;28;20049;-77
2022/03/31 00:26:44;;;;;;;7.40;2.53;;;2.90;99.90;;;;;;5034978;28;20122;-78
2022/03/31 00:29:09;;;;;;;9.77;2.78;;;2.90;99.90;;;;;;5052961;28;20029;-77
2022/03/31 00:31:35;;;;;;;7.35;2.95;;;2.90;99.90;;;;;;5050803;28;20124;-77
2022/03/31 00:34:02;;;;;;;7.28;3.90;;;2.90;99.90;;;;;;5044952;28;20045;-77
2022/03/31 00:36:27;;;;;;;8.15;3.78;;;2.90;99.90;;;;;;5034953;28;20044;-77
2022/03/31 00:41:39;;;;;;;4.70;2.47;;;3.00;99.90;;;;;;5040382;28;20076;-77
2022/03/31 00:44:06;;;;;;;6.97;1.90;;;3.00;99.90;;;;;;5047099;28;20045;-77
2022/03/31 00:46:32;;;;;;;6.35;1.90;;;2.90;99.90;;;;;;5052557;28;20048;-77
2022/03/31 00:48:58;;;;;;;6.57;2.83;;;2.90;99.90;;;;;;5051138;28;20038;-77
2022/03/31 00:51:24;;;;;;;7.40;2.10;;;2.80;99.90;;;;;;5051012;28;20138;-78
2022/03/31 00:53:51;;;;;;;7.13;2.10;;;2.90;99.90;;;;;;5046399;28;20111;-77
2022/03/31 00:56:18;;;;;;;5.13;1.90;;;2.90;99.90;;;;;;5045247;28;20063;-77
2022/03/31 00:58:45;;;;;;;8.43;3.95;;;2.90;99.90;;;;;;5064170;28;20107;-76
2022/03/31 01:01:14;;;;;;;7.07;3.88;;;2.90;99.90;;;;;;5052140;28;20487;-77
2022/03/31 01:03:40;;;;;;;8.23;2.45;;;2.90;99.90;;;;;;5033826;28;20087;-76
2022/03/31 01:06:06;;;;;;;6.22;3.13;;;2.90;99.90;;;;;;5045541;28;20549;-77
2022/03/31 01:08:33;;;;;;;9.60;2.33;;;2.90;99.90;;;;;;5051542;28;20127;-77
2022/03/31 01:10:58;;;;;;;6.93;2.20;;;2.90;99.90;;;;;;5040128;28;20540;-77
2022/03/31 01:13:25;;;;;;;4.18;1.80;;;2.90;99.90;;;;;;5050521;28;20041;-78
2022/03/31 01:15:50;;;;;;;6.18;2.10;;;2.80;99.90;;;;;;5052286;28;20053;-77
2022/03/31 01:18:16;;;;;;;5.78;1.55;;;2.90;99.90;;;;;;5050972;28;20351;-77
2022/03/31 01:20:42;;;;;;;6.32;1.77;;;2.80;99.90;;;;;;5050588;28;20041;-77
2022/03/31 01:23:13;;;;;;;4.82;1.80;;;2.80;99.90;;;;;;5048902;28;20098;-78
2022/03/31 01:25:40;;;;;;;6.28;2.00;;;2.80;99.90;;;;;;5051317;28;20391;-77
2022/03/31 01:28:05;;;;;;;4.82;1.90;;;2.70;99.90;;;;;;5057557;28;20415;-78
2022/03/31 01:30:31;;;;;;;7.20;1.70;;;2.70;99.90;;;;;;5050885;28;20041;-76
2022/03/31 01:32:57;;;;;;;3.50;1.40;;;2.70;99.90;;;;;;5049555;28;20045;-77
2022/03/31 01:35:23;;;;;;;7.75;2.20;;;2.70;99.90;;;;;;5046126;28;20123;-77
2022/03/31 01:37:49;;;;;;;5.40;1.55;;;2.70;99.90;;;;;;5036740;28;20060;-74
2022/03/31 01:40:16;;;;;;;4.10;1.58;;;2.70;99.90;;;;;;5052337;28;20048;-74
2022/03/31 01:42:42;;;;;;;7.63;2.22;;;2.70;99.90;;;;;;5046774;28;20052;-74
2022/03/31 01:45:11;;;;;;;7.75;2.00;;;2.70;99.90;;;;;;5051479;28;20494;-77
2022/03/31 01:47:37;;;;;;;7.40;1.80;;;2.70;99.90;;;;;;5045904;28;20129;-76
2022/03/31 01:50:03;;;;;;;5.80;1.92;;;2.70;99.90;;;;;;5047939;28;20957;-76
2022/03/31 01:52:29;;;;;;;7.25;2.70;;;2.80;99.90;;;;;;5049964;28;20140;-78
2022/03/31 01:54:55;;;;;;;7.55;2.78;;;2.80;99.90;;;;;;5048069;28;20144;-77
2022/03/31 01:57:21;;;;;;;7.40;3.53;;;2.80;99.90;;;;;;5033604;28;20089;-76
2022/03/31 01:59:47;;;;;;;6.88;3.00;;;2.80;99.90;;;;;;5045956;28;20053;-77
2022/03/31 02:02:14;;;;;;;8.85;2.88;;;2.70;99.90;;;;;;5031096;28;20049;-80
2022/03/31 02:04:43;;;;;;;7.75;2.83;;;2.80;99.90;;;;;;5036309;28;20952;-77
2022/03/31 02:07:10;;;;;;;8.60;3.42;;;2.80;99.90;;;;;;5046118;28;20037;-78
2022/03/31 02:09:35;;;;;;;9.00;4.07;;;2.80;99.90;;;;;;5048830;28;20048;-81
2022/03/31 02:12:02;;;;;;;9.10;4.18;;;2.80;99.90;;;;;;5041541;28;20038;-78
2022/03/31 02:14:28;;;;;;;7.68;4.13;;;2.80;99.90;;;;;;5049183;28;20087;-79
2022/03/31 02:16:55;;;;;;;10.10;4.57;;;2.90;99.90;;;;;;5049667;28;20510;-78
2022/03/31 02:19:21;;;;;;;8.13;3.85;;;2.90;99.90;;;;;;5048903;28;20091;-77
2022/03/31 02:21:47;;;;;;;8.32;4.47;;;2.80;99.90;;;;;;5050613;28;20040;-77
2022/03/31 02:24:14;;;;;;;10.80;4.50;;;2.90;99.90;;;;;;5051297;28;20048;-77
2022/03/31 02:26:41;;;;;;;11.07;4.68;;;2.90;99.90;;;;;;5050104;28;20045;-77
2022/03/31 02:29:07;;;;;;;6.20;3.00;;;2.90;99.90;;;;;;5046614;28;20186;-77
2022/03/31 02:31:33;;;;;;;7.07;2.92;;;2.90;99.90;;;;;;5044348;28;20088;-78
2022/03/31 02:33:59;;;;;;;9.35;4.10;;;2.90;99.90;;;;;;5044799;28;20045;-78
2022/03/31 02:36:26;;;;;;;6.28;3.60;;;3.00;99.90;;;;;;5047101;28;20573;-77
2022/03/31 02:38:52;;;;;;;6.22;3.47;;;2.90;99.90;;;;;;5056691;28;20068;-78
2022/03/31 02:41:19;;;;;;;9.48;3.10;;;2.90;99.90;;;;;;5042711;28;20045;-78
2022/03/31 02:43:45;;;;;;;6.72;3.58;;;2.80;99.90;;;;;;5046002;28;20045;-78
2022/03/31 02:46:10;;;;;;;5.90;2.85;;;2.90;99.90;;;;;;5046209;28;20041;-78
2022/03/31 02:48:36;;;;;;;7.40;2.40;;;2.90;99.90;;;;;;5040409;28;20049;-77
2022/03/31 02:51:02;;;;;;;4.88;2.22;;;2.80;99.90;;;;;;5046873;28;20048;-78
2022/03/31 02:56:11;;;;;;;6.75;1.70;;;2.80;99.90;;;;;;5042845;28;20644;-77
2022/03/31 02:58:37;;;;;;;3.38;1.30;;;2.80;99.90;;;;;;5038042;28;20124;-77
2022/03/31 03:01:02;;;;;;;6.15;1.60;;;2.80;99.90;;;;;;5045738;28;20066;-77
2022/03/31 03:03:29;;;;;;;5.15;1.50;;;2.80;99.90;;;;;;5050011;28;20094;-77
2022/03/31 03:05:55;;;;;;;4.70;1.50;;;2.80;99.90;;;;;;5049040;28;20045;-77
2022/03/31 03:08:21;;;;;;;5.07;2.20;;;2.80;99.90;;;;;;5050249;28;20414;-78
2022/03/31 03:10:46;;;;;;;6.45;2.15;;;2.80;99.90;;;;;;5058365;28;20049;-78
2022/03/31 03:13:14;;;;;;;4.82;1.92;;;2.80;99.90;;;;;;5048449;28;20044;-79
2022/03/31 03:15:39;;;;;;;5.72;1.77;;;2.70;99.90;;;;;;5043754;28;20055;-79
2022/03/31 03:18:06;;;;;;;6.47;1.52;;;2.70;99.90;;;;;;5050097;28;20041;-79
2022/03/31 03:20:31;;;;;;;7.70;1.95;;;2.80;99.90;;;;;;5050027;28;20044;-80
2022/03/31 03:22:57;;;;;;;5.72;1.80;;;2.80;99.90;;;;;;5047454;28;20402;-80
2022/03/31 03:25:23;;;;;;;6.00;2.63;;;2.80;99.90;;;;;;5049860;28;20044;-78
2022/03/31 03:27:50;;;;;;;6.72;3.00;;;2.80;99.90;;;;;;5058650;28;20057;-78
2022/03/31 03:30:18;;;;;;;5.85;2.88;;;2.80;99.90;;;;;;5046149;28;20134;-78
2022/03/31 03:32:45;;;;;;;8.60;3.67;;;2.80;99.90;;;;;;5048838;28;20045;-78
2022/03/31 03:35:13;;;;;;;7.28;3.97;;;2.80;99.90;;;;;;5038866;28;20049;-77
2022/03/31 03:37:41;;;;;;;8.15;2.97;;;2.90;99.90;;;;;;5030458;28;20041;-77
2022/03/31 03:40:09;;;;;;;3.90;1.95;;;2.90;99.90;;;;;;5055871;28;20451;-78
2022/03/31 03:42:38;;;;;;;5.85;2.35;;;2.90;99.90;;;;;;5046194;28;20985;-78
2022/03/31 03:45:04;;;;;;;5.65;1.73;;;2.90;99.90;;;;;;5034781;28;20048;-78
2022/03/31 03:47:31;;;;;;;5.95;1.65;;;2.80;99.90;;;;;;5048376;28;20068;-77
2022/03/31 03:49:56;;;;;;;6.13;1.80;;;2.80;99.90;;;;;;5047879;28;20049;-77
2022/03/31 03:52:23;;;;;;;6.25;1.83;;;2.80;99.90;;;;;;5050217;28;20099;-78
2022/03/31 03:54:49;;;;;;;5.68;1.95;;;2.80;99.90;;;;;;5050026;28;20412;-78
2022/03/31 03:57:15;;;;;;;5.45;1.90;;;2.70;99.90;;;;;;5050399;28;20388;-77
2022/03/31 03:59:41;;;;;;;4.90;2.00;;;2.80;99.90;;;;;;5050946;28;20116;-77
2022/03/31 04:02:07;;;;;;;7.15;2.30;;;2.80;99.90;;;;;;5049073;28;20049;-76
2022/03/31 04:04:33;;;;;;;7.53;2.00;;;2.80;99.90;;;;;;5052301;28;20052;-76
2022/03/31 04:06:59;;;;;;;6.75;2.20;;;2.70;99.90;;;;;;5052576;28;20059;-76
2022/03/31 04:09:25;;;;;;;6.72;1.90;;;2.70;99.90;;;;;;5052351;28;20063;-76
2022/03/31 04:11:51;;;;;;;7.57;2.35;;;2.70;99.90;;;;;;5035886;28;20400;-76
2022/03/31 04:14:17;;;;;;;6.53;2.67;;;2.70;99.90;;;;;;5053148;28;20494;-76
2022/03/31 04:16:43;;;;;;;5.65;2.20;;;2.60;99.90;;;;;;5053749;28;20304;-77
2022/03/31 04:19:09;;;;;;;6.00;2.60;;;2.70;99.90;;;;;;5052761;28;20146;-77
2022/03/31 04:21:36;;;;;;;6.30;2.90;;;2.70;99.90;;;;;;5048448;28;20120;-78
2022/03/31 04:24:03;;;;;;;6.18;2.42;;;2.60;99.90;;;;;;5039986;28;20090;-77
2022/03/31 04:26:28;;;;;;;9.80;3.13;;;2.60;99.90;;;;;;5045169;28;20045;-78
2022/03/31 04:28:54;;;;;;;5.32;3.17;;;2.60;99.90;;;;;;5065150;28;20132;-76
2022/03/31 04:31:20;;;;;;;6.43;3.35;;;2.50;99.90;;;;;;5048501;28;20032;-77
2022/03/31 04:33:45;;;;;;;8.45;3.65;;;2.50;99.90;;;;;;5042953;28;20053;-77
2022/03/31 04:36:11;;;;;;;8.10;3.60;;;2.50;99.90;;;;;;5042291;28;20038;-77
2022/03/31 04:38:36;;;;;;;7.35;3.67;;;2.50;99.90;;;;;;5046990;28;20048;-78
2022/03/31 04:41:02;;;;;;;7.03;3.75;;;2.50;99.90;;;;;;5047971;28;20044;-76
2022/03/31 04:43:28;;;;;;;7.78;4.68;;;2.50;99.90;;;;;;5052089;28;20214;-78
2022/03/31 04:45:53;;;;;;;8.48;4.60;;;2.40;99.90;;;;;;5051795;28;20045;-78
2022/03/31 04:48:19;;;;;;;10.43;5.00;;;2.40;99.90;;;;;;5042548;28;20037;-78
2022/03/31 04:50:44;;;;;;;8.38;4.10;;;2.40;99.90;;;;;;5052403;28;20091;-78
2022/03/31 04:53:11;;;;;;;11.13;5.38;;;2.40;99.90;;;;;;5044813;28;20041;-78
2022/03/31 04:55:38;;;;;;;8.25;4.60;;;2.40;99.90;;;;;;5043195;28;20059;-78
2022/03/31 04:58:04;;;;;;;7.63;4.55;;;2.40;99.90;;;;;;5049419;28;20546;-78
2022/03/31 05:00:30;;;;;;;9.07;5.00;;;2.40;99.90;;;;;;5054506;28;20121;-79
2022/03/31 05:02:55;;;;;;;8.13;4.38;;;2.50;99.90;;;;;;5052203;28;20054;-78
2022/03/31 05:05:21;;;;;;;7.50;5.07;;;2.50;99.90;;;;;;5050863;28;20037;-78
2022/03/31 05:07:47;;;;;;;8.80;4.75;;;2.50;99.90;;;;;;5045714;28;20045;-74
2022/03/31 05:10:12;;;;;;;9.75;5.22;;;2.50;99.90;;;;;;5050792;28;20049;-76
2022/03/31 05:12:38;;;;;;;9.60;5.55;;;2.50;99.90;;;;;;5047029;28;20141;-78
2022/03/31 05:15:04;;;;;;;7.53;5.00;;;2.50;99.90;;;;;;5065490;28;20040;-78
2022/03/31 05:17:35;;;;;;;9.40;5.47;;;2.50;99.90;;;;;;5049118;28;20097;-80
2022/03/31 05:20:08;;;;;;;8.32;5.30;;;2.50;99.90;;;;;;5041685;28;20048;-80
2022/03/31 05:22:35;;;;;;;10.00;5.80;;;2.50;99.90;;;;;;5045036;28;20115;-79
2022/03/31 05:25:02;;;;;;;8.40;5.43;;;2.50;99.90;;;;;;5048064;28;20387;-80
2022/03/31 05:27:28;;;;;;;9.48;5.65;;;2.50;99.90;;;;;;5042568;28;20568;-78
2022/03/31 05:29:53;;;;;;;8.60;5.63;;;2.50;99.90;;;;;;5043908;28;20049;-73
2022/03/31 05:32:19;;;;;;;9.27;5.50;;;2.50;99.90;;;;;;5047684;28;20045;-76
2022/03/31 05:34:44;;;;;;;10.43;6.38;;;2.60;99.90;;;;;;5050625;28;20052;-74
2022/03/31 05:37:10;;;;;;;10.20;6.35;;;2.50;99.90;;;;;;5051252;28;20113;-80
2022/03/31 05:39:37;;;;;;;9.25;5.85;;;2.60;99.90;;;;;;5048956;28;20059;-78
2022/03/31 05:42:03;;;;;;;10.77;6.60;;;2.60;99.90;;;;;;5045984;28;20036;-77
2022/03/31 05:44:35;;;;;;;10.32;6.50;;;2.60;99.90;;;;;;5035602;28;20041;-81
2022/03/31 05:47:03;;;;;;;12.63;7.07;;;2.60;99.90;;;;;;5034575;28;20048;-80
2022/03/31 05:49:29;;;;;;;9.85;7.15;;;2.60;99.90;;;;;;5032575;28;20458;-80
2022/03/31 05:51:55;;;;;;;9.05;6.50;;;2.60;99.90;;;;;;5053281;28;20116;-77
2022/03/31 05:54:21;;;;;;;10.90;7.03;;;2.60;99.90;;;;;;5051674;28;20080;-80
2022/03/31 05:56:46;;;;;;;10.82;6.65;;;2.70;99.90;;;;;;5051027;28;20080;-80
2022/03/31 05:59:13;;;;;;;8.32;6.22;;;2.70;99.90;;;;;;5050364;28;20053;-78
2022/03/31 06:01:39;;;;;;;9.27;6.47;;;2.80;99.90;;;;;;5046503;28;20056;-79
2022/03/31 06:04:04;;;;;;;9.50;6.72;;;2.70;99.90;;;;;;5037023;28;20045;-79
2022/03/31 06:06:30;;;;;;;11.52;7.80;;;2.80;99.90;;;;;;5064964;28;20041;-81
2022/03/31 06:08:55;;;;;;;13.38;8.93;;;2.80;99.90;;;;;;5048860;28;20087;-81
2022/03/31 06:11:21;;;;;;;11.15;8.13;;;2.80;99.90;;;;;;5042098;28;20111;-83
2022/03/31 06:13:47;;;;;;;9.77;6.35;;;2.80;99.90;;;;;;5046972;28;20061;-76
2022/03/31 06:16:12;;;;;;;9.23;6.45;;;2.80;99.90;;;;;;5053093;28;20064;-81
2022/03/31 06:18:38;;;;;;;8.95;7.00;;;2.80;99.90;;;;;;5048065;28;20101;-82
2022/03/31 06:21:04;;;;;;;9.15;6.63;;;2.90;99.90;;;;;;5056497;28;21825;-82
2022/03/31 06:23:29;;;;;;;9.65;6.68;;;2.90;99.90;;;;;;5049066;28;20348;-81
2022/03/31 06:25:55;;;;;;;11.18;7.30;;;3.00;99.90;;;;;;5065451;28;20063;-86
2022/03/31 06:28:21;;;;;;;8.93;6.38;;;3.00;99.90;;;;;;5032140;28;20065;-83
2022/03/31 06:30:47;;;;;;;8.45;6.15;;;2.90;99.90;;;;;;5048328;28;20495;-81
2022/03/31 06:33:18;;;;;;;9.23;6.55;;;3.00;99.90;;;;;;5032564;28;20041;-82
2022/03/31 06:35:44;;;;;;;10.60;7.15;;;3.00;99.90;;;;;;5050577;28;20467;-81
2022/03/31 06:38:11;;;;;;;9.05;6.75;;;3.00;99.90;;;;;;5049421;28;20091;-81
2022/03/31 06:40:41;;;;;;;9.30;6.30;;;3.10;99.90;;;;;;5044104;28;20116;-80
2022/03/31 06:43:07;;;;;;;8.73;6.50;;;3.00;99.90;;;;;;5045652;28;20421;-80
2022/03/31 06:45:34;;;;;;;14.23;8.95;;;3.00;99.90;;;;;;5037091;28;20076;-81
2022/03/31 06:48:01;;;;;;;11.70;8.50;;;3.10;99.90;;;;;;5048288;28;20126;-81
2022/03/31 06:50:27;;;;;;;11.60;7.88;;;3.10;99.90;;;;;;5049116;28;20045;-81
2022/03/31 06:52:52;;;;;;;12.25;8.93;;;3.10;99.90;;;;;;5042813;28;20459;-80
2022/03/31 06:55:18;;;;;;;12.35;8.20;;;3.20;99.90;;;;;;5049875;28;20045;-82
2022/03/31 06:57:43;;;;;;;11.18;7.70;;;3.20;99.90;;;;;;5048519;28;22058;-84
2022/03/31 07:00:10;;;;;;;8.98;6.50;;;3.30;99.90;;;;;;5050703;28;20052;-81
2022/03/31 07:02:36;;;;;;;9.52;6.70;;;3.40;99.90;;;;;;5045862;28;20077;-82
2022/03/31 07:05:01;;;;;;;10.57;7.50;;;3.40;99.90;;;;;;5029592;28;20404;-81
2022/03/31 07:07:27;;;;;;;11.13;7.20;;;3.40;99.90;;;;;;5030733;28;20478;-80
2022/03/31 07:09:53;;;;;;;11.18;7.68;;;3.40;99.90;;;;;;5033153;28;20124;-81
2022/03/31 07:12:18;;;;;;;12.45;7.95;;;3.50;99.90;;;;;;5039764;28;20055;-81
2022/03/31 07:14:44;;;;;;;9.27;6.70;;;3.40;99.90;;;;;;5043106;28;20091;-82
2022/03/31 07:17:11;;;;;;;10.48;7.63;;;3.40;99.90;;;;;;5060803;28;20132;-80
2022/03/31 07:19:37;;;;;;;10.05;7.57;;;3.50;99.90;;;;;;5045140;28;20068;-81
2022/03/31 07:22:03;;;;;;;10.40;7.13;;;3.40;99.90;;;;;;5044216;28;20367;-82
2022/03/31 07:24:29;;;;;;;11.35;7.68;;;3.40;99.90;;;;;;5045904;28;20045;-80
2022/03/31 07:26:55;;;;;;;11.65;8.15;;;3.50;99.90;;;;;;5048411;28;20448;-80
2022/03/31 07:29:20;;;;;;;12.35;8.68;;;3.40;99.90;;;;;;5044866;28;20865;-80
2022/03/31 07:31:46;;;;;;;11.90;8.57;;;3.30;99.90;;;;;;5048064;28;20097;-78
2022/03/31 07:34:12;;;;;;;10.63;8.10;;;3.30;99.90;;;;;;5049868;28;20045;-78
2022/03/31 07:36:37;;;;;;;10.13;7.85;;;3.40;99.90;;;;;;5050573;28;20197;-78
2022/03/31 07:39:03;;;;;;;10.55;7.95;;;3.40;99.90;;;;;;5064697;28;20025;-78
2022/03/31 07:41:28;;;;;;;10.32;7.78;;;3.40;99.90;;;;;;5048071;28;20560;-81
2022/03/31 07:43:54;;;;;;;11.10;8.38;;;3.50;99.90;;;;;;5047024;28;20452;-79
2022/03/31 07:46:23;;;;;;;10.90;7.85;;;3.50;99.90;;;;;;5027710;28;20045;-80
2022/03/31 07:48:52;;;;;;;9.48;7.40;;;3.50;99.90;;;;;;5033745;28;20045;-82
2022/03/31 07:51:18;;;;;;;10.25;7.45;;;3.50;99.90;;;;;;5047836;28;20041;-79
2022/03/31 07:53:44;;;;;;;10.25;7.68;;;3.50;99.90;;;;;;5064914;28;20045;-80
2022/03/31 07:56:10;;;;;;;10.30;7.55;;;3.60;99.90;;;;;;5046743;28;20075;-80
2022/03/31 07:58:36;;;;;;;9.95;7.30;;;3.50;99.90;;;;;;5048078;28;20065;-82
2022/03/31 08:01:02;;;;;;;9.68;6.80;;;3.50;99.90;;;;;;5050001;28;20487;-81
2022/03/31 08:03:28;;;;;;;10.07;6.95;;;3.50;99.90;;;;;;5033756;28;20477;-79
2022/03/31 08:05:54;;;;;;;9.30;6.90;;;3.50;99.90;;;;;;5032154;28;20037;-78
2022/03/31 08:08:20;;;;;;;10.05;7.50;;;3.50;99.90;;;;;;5052480;28;20083;-80
2022/03/31 08:10:45;;;;;;;11.10;8.05;;;3.40;99.90;;;;;;5048174;28;20483;-83
2022/03/31 08:13:11;;;;;;;10.38;7.70;;;3.50;99.90;;;;;;5030647;28;20049;-83
2022/03/31 08:15:37;;;;;;;10.52;7.55;;;3.50;99.90;;;;;;5029367;28;20478;-82
2022/03/31 08:18:04;;;;;;;11.27;8.18;;;3.50;99.90;;;;;;5047260;28;20487;-82
2022/03/31 08:20:30;;;;;;;9.65;6.53;;;3.50;99.90;;;;;;5049209;28;20041;-76
2022/03/31 08:22:55;;;;;;;8.88;6.70;;;3.60;99.90;;;;;;5052631;28;20056;-78
2022/03/31 08:25:21;;;;;;;9.02;6.47;;;3.50;99.90;;;;;;5048982;28;20048;-75
2022/03/31 08:27:47;;;;;;;8.68;6.40;;;3.50;99.90;;;;;;5051230;28;20150;-76
2022/03/31 08:30:19;;;;;;;8.68;6.63;;;3.50;99.90;;;;;;5046536;28;20106;-76
2022/03/31 08:32:46;;;;;;;9.90;6.80;;;3.60;99.90;;;;;;5032313;28;20468;-77
2022/03/31 08:35:13;;;;;;;9.32;6.60;;;3.60;99.90;;;;;;5045412;28;20444;-76
2022/03/31 08:37:39;;;;;;;8.75;6.35;;;3.50;99.90;;;;;;5050177;28;20481;-76
2022/03/31 08:40:08;;;;;;;8.43;6.00;;;3.50;99.90;;;;;;5043969;28;20037;-76
2022/03/31 08:42:34;;;;;;;8.27;6.15;;;3.50;99.90;;;;;;5047473;28;20156;-77
2022/03/31 08:45:01;;;;;;;10.00;6.95;;;3.60;99.90;;;;;;5045191;28;20299;-77
2022/03/31 08:47:28;;;;;;;9.52;6.55;;;3.50;99.90;;;;;;5048176;28;20052;-76
2022/03/31 08:49:55;;;;;;;9.15;6.70;;;3.50;99.90;;;;;;5048901;28;20041;-76
2022/03/31 08:52:21;;;;;;;8.27;6.45;;;3.50;99.90;;;;;;5048890;28;20048;-77
2022/03/31 08:54:47;;;;;;;8.40;6.25;;;3.60;99.90;;;;;;5048287;28;20119;-77
2022/03/31 08:57:25;;;;;;;7.82;5.93;;;3.50;99.90;;;;;;5048587;28;20061;-77
2022/03/31 08:59:51;;;;;;;8.18;5.95;;;3.50;99.90;;;;;;5049982;28;20072;-76
2022/03/31 09:02:34;;;;;;;8.90;6.78;;;3.60;99.90;;;;;;5049020;28;20506;-76
2022/03/31 09:05:02;;;;;;;8.63;6.45;;;3.50;99.90;;;;;;5049739;28;20116;-78
2022/03/31 09:07:27;;;;;;;10.30;7.18;;;3.60;99.90;;;;;;5048852;28;20048;-77
2022/03/31 09:09:53;;;;;;;9.18;6.70;;;3.50;99.90;;;;;;5047357;28;20052;-78
2022/03/31 09:12:19;;;;;;;9.25;6.03;;;3.60;99.90;;;;;;5062958;28;20140;-77
2022/03/31 09:14:45;;;;;;;10.00;6.75;;;3.60;99.90;;;;;;5045774;28;20041;-75
2022/03/31 09:17:15;;;;;;;8.40;6.35;;;3.60;99.90;;;;;;5047334;28;20037;-76
2022/03/31 09:19:43;;;;;;;8.30;6.15;;;3.70;99.90;;;;;;5048241;28;20095;-76
2022/03/31 09:22:09;;;;;;;8.93;6.88;;;3.70;99.90;;;;;;5050336;28;20198;-76
2022/03/31 09:24:35;;;;;;;8.55;6.53;;;3.60;99.90;;;;;;5047035;28;20426;-75
2022/03/31 09:27:02;;;;;;;8.45;6.00;;;3.70;99.90;;;;;;5047810;28;20037;-79
2022/03/31 09:29:29;;;;;;;8.25;6.10;;;3.70;99.90;;;;;;5038814;28;20076;-77
2022/03/31 09:32:12;;;;;;;8.82;5.80;;;3.70;99.90;;;;;;5047159;28;20527;-77
2022/03/31 09:34:48;;;;;;;7.95;5.78;;;3.70;99.90;;;;;;5047017;28;20482;-82
2022/03/31 09:37:15;;;;;;;7.57;5.53;;;3.60;99.90;;;;;;5048992;28;20051;-75
2022/03/31 09:39:41;;;;;;;7.25;5.45;;;3.50;99.90;;;;;;5047096;28;20052;-78
2022/03/31 09:42:11;;;;;;;8.77;6.15;;;3.50;99.90;;;;;;5046104;28;20414;-77
2022/03/31 09:44:38;;;;;;;7.82;5.82;;;3.50;99.90;;;;;;5041105;28;20091;-64
2022/03/31 09:47:03;;;;;;;6.68;4.93;;;3.50;99.90;;;;;;5048132;28;20103;-65
2022/03/31 09:49:29;;;;;;;7.57;5.75;;;3.50;99.90;;;;;;5046482;28;20052;-63
2022/03/31 09:51:56;;;;;;;6.93;5.30;;;3.50;99.90;;;;;;5049047;28;20131;-66
2022/03/31 09:54:26;;;;;;;7.30;5.22;;;3.40;99.90;;;;;;5046550;28;20420;-64
2022/03/31 09:56:52;;;;;;;6.95;4.90;;;3.40;99.90;;;;;;5046389;28;20087;-66
2022/03/31 09:59:18;;;;;;;7.20;5.13;;;3.30;99.90;;;;;;5042296;28;20053;-65
2022/03/31 10:01:45;;;;;;;6.28;4.72;;;3.40;99.90;;;;;;5040417;28;20060;-67
2022/03/31 10:04:12;;;;;;;7.68;4.97;;;3.40;99.90;;;;;;5046252;28;20076;-68
2022/03/31 10:06:40;;;;;;;6.80;5.10;;;3.40;99.90;;;;;;5045494;28;20132;-65
2022/03/31 10:09:09;;;;;;;6.40;4.70;;;3.50;99.90;;;;;;5030890;28;20578;-65
2022/03/31 10:11:44;;;;;;;6.05;4.40;;;3.50;99.90;;;;;;5046822;28;20057;-66
2022/03/31 10:14:31;;;;;;;6.07;4.15;;;3.60;99.90;;;;;;5046808;28;20073;-65
2022/03/31 10:16:59;;;;;;;5.75;3.97;;;3.50;99.90;;;;;;5046081;28;20102;-65
2022/03/31 10:19:45;;;;;;;5.80;3.60;;;3.50;99.90;;;;;;5041737;28;20036;-66
2022/03/31 10:25:07;;;;;;;4.97;3.25;;;3.50;99.90;;;;;;5046316;28;20052;-66
2022/03/31 10:27:36;;;;;;;5.82;3.50;;;3.40;99.90;;;;;;5045676;28;20053;-65
2022/03/31 10:30:22;;;;;;;5.13;3.22;;;3.40;99.90;;;;;;5046782;28;20048;-65
2022/03/31 10:32:58;;;;;;;5.43;3.22;;;3.40;99.90;;;;;;5048106;28;20068;-64
2022/03/31 10:35:28;;;;;;;4.50;2.83;;;3.30;99.90;;;;;;5045750;28;20119;-66
2022/03/31 10:37:54;;;;;;;5.30;2.92;;;3.20;99.90;;;;;;5044098;28;20092;-66
2022/03/31 10:40:32;;;;;;;4.80;2.83;;;3.20;99.90;;;;;;5046314;28;20041;-66
2022/03/31 10:42:58;;;;;;;5.72;3.10;;;3.20;99.90;;;;;;5041241;28;20080;-66
2022/03/31 10:45:40;;;;;;;5.20;3.08;;;3.20;99.90;;;;;;5046320;28;20073;-66
2022/03/31 10:48:29;;;;;;;4.72;3.00;;;3.20;99.90;;;;;;5047172;28;20494;-66
2022/03/31 10:51:10;;;;;;;5.15;3.33;;;3.30;99.90;;;;;;5043314;28;20076;-66
2022/03/31 10:53:42;;;;;;;5.45;3.63;;;3.20;99.90;;;;;;5043653;28;20049;-67
2022/03/31 10:56:24;;;;;;;5.03;3.20;;;3.20;99.90;;;;;;5034144;28;20057;-65
2022/03/31 10:58:52;;;;;;;4.90;3.15;;;3.20;99.90;;;;;;5045929;28;20045;-67
2022/03/31 11:01:23;;;;;;;5.00;3.20;;;3.20;99.90;;;;;;5047798;28;20148;-65
2022/03/31 11:03:50;;;;;;;5.00;3.10;;;3.10;99.90;;;;;;5046056;28;20047;-67
2022/03/31 11:06:18;;;;;;;5.75;3.47;;;3.20;99.90;;;;;;5046186;28;20075;-66
2022/03/31 11:08:46;;;;;;;5.95;3.53;;;3.20;99.90;;;;;;5046231;28;20056;-67
2022/03/31 11:11:22;;;;;;;5.20;3.20;;;3.20;99.90;;;;;;5045930;28;20049;-66
2022/03/31 11:13:50;;;;;;;5.45;3.20;;;3.10;99.90;;;;;;5041831;28;20361;-66
2022/03/31 11:16:16;;;;;;;5.30;3.13;;;3.10;99.90;;;;;;5045201;28;20057;-66
2022/03/31 11:18:51;;;;;;;5.15;3.17;;;3.10;99.90;;;;;;5046786;28;20362;-65
2022/03/31 11:21:16;;;;;;;5.05;3.03;;;3.10;99.90;;;;;;5033633;28;20084;-66
2022/03/31 11:23:47;;;;;;;5.18;3.22;;;3.10;99.90;;;;;;5045261;28;20091;-67
2022/03/31 11:26:16;;;;;;;4.45;2.50;;;3.00;99.90;;;;;;5044946;28;20513;-65
2022/03/31 11:28:42;;;;;;;4.53;2.70;;;3.00;99.90;;;;;;5047614;28;20087;-65
2022/03/31 11:31:14;;;;;;;5.00;2.90;;;3.00;99.90;;;;;;5045625;28;20048;-66
2022/03/31 11:33:40;;;;;;;4.20;2.45;;;3.00;99.90;;;;;;5043657;28;20041;-67
2022/03/31 11:36:05;;;;;;;4.80;3.00;;;2.90;99.90;;;;;;5042798;28;20055;-66
2022/03/31 11:38:31;;;;;;;4.68;2.60;;;2.90;99.90;;;;;;5045547;28;20201;-65
2022/03/31 11:40:57;;;;;;;5.10;2.75;;;2.80;99.90;;;;;;5044756;28;20041;-65
2022/03/31 11:43:23;;;;;;;4.60;2.80;;;2.90;99.90;;;;;;5048641;28;20098;-66
2022/03/31 11:45:51;;;;;;;5.03;2.85;;;2.90;99.90;;;;;;5044795;28;20063;-66
2022/03/31 11:48:18;;;;;;;5.10;3.10;;;2.80;99.90;;;;;;5045793;28;20049;-65
2022/03/31 11:50:56;;;;;;;4.80;2.90;;;2.80;99.90;;;;;;5044543;28;20458;-65
2022/03/31 11:53:26;;;;;;;5.32;3.10;;;2.70;99.90;;;;;;5039422;28;20043;-64
2022/03/31 11:56:18;;;;;;;4.65;2.92;;;2.70;99.90;;;;;;5045793;28;20067;-65
2022/03/31 11:58:47;;;;;;;5.00;3.00;;;2.70;99.90;;;;;;5045040;28;20060;-66
2022/03/31 12:01:18;;;;;;;5.97;3.05;;;2.60;99.90;;;;;;5046790;28;20037;-66
2022/03/31 12:03:43;;;;;;;5.40;3.20;;;2.60;99.90;;;;;;5044787;28;20049;-65
2022/03/31 12:06:10;;;;;;;4.70;2.80;;;2.60;99.90;;;;;;5046349;28;20045;-65
2022/03/31 12:08:38;;;;;;;5.55;2.97;;;2.60;99.90;;;;;;5044413;28;20045;-66
2022/03/31 12:11:05;;;;;;;5.20;3.10;;;2.60;99.90;;;;;;5045041;28;20132;-65
2022/03/31 12:13:30;;;;;;;4.60;2.90;;;2.60;99.90;;;;;;5029039;28;20106;-65
2022/03/31 12:16:04;;;;;;;5.35;3.10;;;2.50;99.90;;;;;;5046153;28;20049;-65
2022/03/31 12:18:34;;;;;;;4.88;2.90;;;2.50;99.90;;;;;;5045395;28;20483;-64
2022/03/31 12:21:04;;;;;;;5.50;3.50;;;2.50;99.90;;;;;;5048566;28;20059;-65
2022/03/31 12:23:31;;;;;;;5.13;3.00;;;2.50;99.90;;;;;;5046395;28;20116;-65
2022/03/31 12:25:56;;;;;;;4.95;2.88;;;2.40;99.90;;;;;;5046505;28;20724;-66
2022/03/31 12:28:23;;;;;;;5.63;3.22;;;2.40;99.90;;;;;;5050886;28;20041;-66
2022/03/31 12:30:56;;;;;;;5.40;3.40;;;2.30;99.90;;;;;;5048392;28;20037;-66
2022/03/31 12:33:35;;;;;;;6.20;3.50;;;2.20;99.90;;;;;;5049602;28;20451;-65
2022/03/31 12:36:06;;;;;;;5.53;3.38;;;2.20;99.90;;;;;;5045270;28;20037;-65
2022/03/31 12:38:52;;;;;;;6.15;3.95;;;2.20;99.90;;;;;;5047049;28;20048;-66
2022/03/31 12:41:18;;;;;;;5.65;3.53;;;2.30;99.90;;;;;;5046034;28;20499;-65
2022/03/31 12:43:57;;;;;;;6.50;4.20;;;2.20;99.90;;;;;;5043283;28;20147;-66
2022/03/31 12:46:23;;;;;;;6.53;4.03;;;2.30;99.90;;;;;;5048701;28;20061;-65
2022/03/31 12:49:09;;;;;;;7.68;4.60;;;2.20;99.90;;;;;;5044249;28;20120;-65
2022/03/31 12:51:58;;;;;;;6.85;4.38;;;2.30;99.90;;;;;;5043178;28;20087;-64
2022/03/31 12:54:32;;;;;;;6.93;4.72;;;2.20;99.90;;;;;;5044595;28;20498;-67
2022/03/31 12:57:22;;;;;;;7.82;5.45;;;2.20;99.90;;;;;;5045645;28;20064;-65
2022/03/31 13:00:00;;;;;;;10.43;6.43;;;2.30;99.90;;;;;;5027208;28;20080;-65
2022/03/31 13:02:26;;;;;;;11.18;7.30;;;2.30;99.90;;;;;;5044837;28;20047;-65
2022/03/31 13:04:52;;;;;;;9.70;6.00;;;2.30;99.90;;;;;;5047337;28;20119;-65
2022/03/31 13:07:27;;;;;;;8.45;5.50;;;2.20;99.90;;;;;;5049136;28;20049;-65
2022/03/31 13:09:53;;;;;;;9.73;6.60;;;2.30;99.90;;;;;;5046299;28;20102;-65